sensor_id;sensor_type;location;lat;lon;timestamp;temperature;humidity
3727;DHT22;1879;45.876;12.300;2024-03-25T00:00:09;8.40;99.90
3727;DHT22;1879;45.876;12.300;2024-03-25T00:02:37;8.30;99.90
3727;DHT22;1879;45.876;12.300;2024-03-25T00:05:03;8.30;99.90
3727;DHT22;1879;45.876;12.300;2024-03-25T00:07:31;8.30;99.90
3727;DHT22;1879;45.876;12.300;2024-03-25T00:09:57;8.20;1.00
3727;DHT22;1879;45.876;12.300;2024-03-25T00:12:26;8.10;1.00
3727;DHT22;1879;45.876;12.300;2024-03-25T00:14:52;8.10;1.00
3727;DHT22;1879;45.876;12.300;2024-03-25T00:17:19;8.10;99.90
3727;DHT22;1879;45.876;12.300;2024-03-25T00:19:45;8.00;99.90
3727;DHT22;1879;45.876;12.300;2024-03-25T00:22:16;8.00;84.10
3727;DHT22;1879;45.876;12.300;2024-03-25T00:24:42;8.00;99.90
3727;DHT22;1879;45.876;12.300;2024-03-25T00:27:09;7.80;99.90
3727;DHT22;1879;45.876;12.300;2024-03-25T00:29:36;7.70;1.00
3727;DHT22;1879;45.876;12.300;2024-03-25T00:32:04;7.70;99.90
3727;DHT22;1879;45.876;12.300;2024-03-25T00:34:30;7.60;1.00
3727;DHT22;1879;45.876;12.300;2024-03-25T00:36:58;7.50;1.00
3727;DHT22;1879;45.876;12.300;2024-03-25T00:39:24;7.30;1.00
3727;DHT22;1879;45.876;12.300;2024-03-25T00:41:51;7.20;1.00
3727;DHT22;1879;45.876;12.300;2024-03-25T00:44:17;7.20;99.90
3727;DHT22;1879;45.876;12.300;2024-03-25T00:46:45;7.20;99.90
3727;DHT22;1879;45.876;12.300;2024-03-25T00:49:12;7.30;1.00
3727;DHT22;1879;45.876;12.300;2024-03-25T00:51:39;7.40;71.10
3727;DHT22;1879;45.876;12.300;2024-03-25T00:54:05;7.40;99.90
3727;DHT22;1879;45.876;12.300;2024-03-25T00:56:32;7.40;99.90
3727;DHT22;1879;45.876;12.300;2024-03-25T00:58:58;7.40;1.00
3727;DHT22;1879;45.876;12.300;2024-03-25T01:01:28;7.60;99.90
3727;DHT22;1879;45.876;12.300;2024-03-25T01:03:55;7.60;1.00
3727;DHT22;1879;45.876;12.300;2024-03-25T01:06:22;7.60;1.00
3727;DHT22;1879;45.876;12.300;2024-03-25T01:08:49;7.60;1.00
3727;DHT22;1879;45.876;12.300;2024-03-25T01:11:16;7.70;99.90
3727;DHT22;1879;45.876;12.300;2024-03-25T01:13:42;7.70;99.90
3727;DHT22;1879;45.876;12.300;2024-03-25T01:16:09;7.70;99.90
3727;DHT22;1879;45.876;12.300;2024-03-25T01:18:35;7.70;99.90
3727;DHT22;1879;45.876;12.300;2024-03-25T01:21:03;7.70;99.90
3727;DHT22;1879;45.876;12.300;2024-03-25T01:23:30;7.70;1.00
3727;DHT22;1879;45.876;12.300;2024-03-25T01:25:57;7.70;44.80
3727;DHT22;1879;45.876;12.300;2024-03-25T01:28:23;7.70;1.00
3727;DHT22;1879;45.876;12.300;2024-03-25T01:30:50;7.80;1.00
3727;DHT22;1879;45.876;12.300;2024-03-25T01:33:15;7.80;1.00
3727;DHT22;1879;45.876;12.300;2024-03-25T01:35:42;7.80;3.00
3727;DHT22;1879;45.876;12.300;2024-03-25T01:38:10;7.70;1.00
3727;DHT22;1879;45.876;12.300;2024-03-25T01:40:36;7.60;1.00
3727;DHT22;1879;45.876;12.300;2024-03-25T01:43:03;7.60;1.00
3727;DHT22;1879;45.876;12.300;2024-03-25T01:45:31;7.60;99.90
3727;DHT22;1879;45.876;12.300;2024-03-25T01:48:00;7.50;99.90
3727;DHT22;1879;45.876;12.300;2024-03-25T01:50:29;7.50;99.90
3727;DHT22;1879;45.876;12.300;2024-03-25T01:52:56;7.30;1.00
3727;DHT22;1879;45.876;12.300;2024-03-25T01:55:27;7.30;90.60
3727;DHT22;1879;45.876;12.300;2024-03-25T01:57:54;7.10;99.90
3727;DHT22;1879;45.876;12.300;2024-03-25T02:00:22;7.00;99.90
3727;DHT22;1879;45.876;12.300;2024-03-25T02:02:48;6.80;1.00
3727;DHT22;1879;45.876;12.300;2024-03-25T02:05:16;6.80;1.00
3727;DHT22;1879;45.876;12.300;2024-03-25T02:07:43;6.90;23.20
3727;DHT22;1879;45.876;12.300;2024-03-25T02:10:11;6.90;1.00
3727;DHT22;1879;45.876;12.300;2024-03-25T02:12:42;6.80;99.90
3727;DHT22;1879;45.876;12.300;2024-03-25T05:31:21;6.60;1.00
3727;DHT22;1879;45.876;12.300;2024-03-25T05:33:47;5.20;99.90
3727;DHT22;1879;45.876;12.300;2024-03-25T05:36:14;5.20;1.00
3727;DHT22;1879;45.876;12.300;2024-03-25T05:38:40;5.20;99.90
3727;DHT22;1879;45.876;12.300;2024-03-25T05:41:07;5.20;1.00
3727;DHT22;1879;45.876;12.300;2024-03-25T05:43:33;5.20;1.00
3727;DHT22;1879;45.876;12.300;2024-03-25T05:45:58;5.10;99.90
3727;DHT22;1879;45.876;12.300;2024-03-25T05:48:25;5.20;1.00
3727;DHT22;1879;45.876;12.300;2024-03-25T05:50:59;5.30;99.90
3727;DHT22;1879;45.876;12.300;2024-03-25T05:53:27;5.30;99.90
3727;DHT22;1879;45.876;12.300;2024-03-25T05:55:53;5.40;99.90
3727;DHT22;1879;45.876;12.300;2024-03-25T05:58:19;5.60;1.00
3727;DHT22;1879;45.876;12.300;2024-03-25T06:00:47;5.60;1.00
3727;DHT22;1879;45.876;12.300;2024-03-25T06:03:13;5.70;1.00
3727;DHT22;1879;45.876;12.300;2024-03-25T06:05:39;5.80;62.20
3727;DHT22;1879;45.876;12.300;2024-03-25T06:08:08;5.80;1.00
3727;DHT22;1879;45.876;12.300;2024-03-25T06:10:37;5.90;1.00
3727;DHT22;1879;45.876;12.300;2024-03-25T06:13:04;6.00;1.00
3727;DHT22;1879;45.876;12.300;2024-03-25T06:15:30;6.20;1.00
3727;DHT22;1879;45.876;12.300;2024-03-25T06:17:56;6.20;1.00
3727;DHT22;1879;45.876;12.300;2024-03-25T06:20:21;6.40;99.90
3727;DHT22;1879;45.876;12.300;2024-03-25T06:22:47;6.50;99.90
3727;DHT22;1879;45.876;12.300;2024-03-25T06:25:13;6.60;99.90
3727;DHT22;1879;45.876;12.300;2024-03-25T06:27:41;6.70;1.00
3727;DHT22;1879;45.876;12.300;2024-03-25T06:30:08;6.80;99.90
3727;DHT22;1879;45.876;12.300;2024-03-25T06:32:52;6.80;1.00
3727;DHT22;1879;45.876;12.300;2024-03-25T06:35:37;6.80;1.00
3727;DHT22;1879;45.876;12.300;2024-03-25T06:38:03;6.80;99.90
3727;DHT22;1879;45.876;12.300;2024-03-25T06:40:29;6.70;1.00
3727;DHT22;1879;45.876;12.300;2024-03-25T06:42:56;6.80;1.00
3727;DHT22;1879;45.876;12.300;2024-03-25T06:45:22;6.90;1.00
3727;DHT22;1879;45.876;12.300;2024-03-25T06:47:48;6.90;1.00
3727;DHT22;1879;45.876;12.300;2024-03-25T06:50:14;7.00;99.90
3727;DHT22;1879;45.876;12.300;2024-03-25T06:52:40;7.00;99.90
3727;DHT22;1879;45.876;12.300;2024-03-25T06:55:07;7.10;1.00
3727;DHT22;1879;45.876;12.300;2024-03-25T06:57:33;7.20;1.00
3727;DHT22;1879;45.876;12.300;2024-03-25T07:00:00;7.20;1.00
3727;DHT22;1879;45.876;12.300;2024-03-25T07:02:26;7.30;79.70
3727;DHT22;1879;45.876;12.300;2024-03-25T07:04:52;7.40;1.00
3727;DHT22;1879;45.876;12.300;2024-03-25T07:07:18;7.50;1.00
3727;DHT22;1879;45.876;12.300;2024-03-25T07:09:44;7.60;1.00
3727;DHT22;1879;45.876;12.300;2024-03-25T07:12:10;7.60;1.00
3727;DHT22;1879;45.876;12.300;2024-03-25T07:14:36;7.80;1.00
3727;DHT22;1879;45.876;12.300;2024-03-25T07:17:04;7.80;1.00
3727;DHT22;1879;45.876;12.300;2024-03-25T07:19:29;7.90;99.90
3727;DHT22;1879;45.876;12.300;2024-03-25T07:21:55;8.00;1.00
3727;DHT22;1879;45.876;12.300;2024-03-25T07:24:21;8.00;99.90
3727;DHT22;1879;45.876;12.300;2024-03-25T07:26:47;8.10;99.90
3727;DHT22;1879;45.876;12.300;2024-03-25T07:29:13;8.10;1.00
3727;DHT22;1879;45.876;12.300;2024-03-25T07:31:39;8.20;1.00
3727;DHT22;1879;45.876;12.300;2024-03-25T07:34:06;8.20;1.00
3727;DHT22;1879;45.876;12.300;2024-03-25T07:36:32;8.30;1.00
3727;DHT22;1879;45.876;12.300;2024-03-25T07:38:58;8.40;1.00
3727;DHT22;1879;45.876;12.300;2024-03-25T07:41:24;8.50;54.00
3727;DHT22;1879;45.876;12.300;2024-03-25T07:43:50;8.50;99.90
3727;DHT22;1879;45.876;12.300;2024-03-25T07:46:16;8.50;99.90
3727;DHT22;1879;45.876;12.300;2024-03-25T07:48:42;8.60;1.00
3727;DHT22;1879;45.876;12.300;2024-03-25T07:51:09;8.70;1.00
3727;DHT22;1879;45.876;12.300;2024-03-25T07:53:35;8.70;1.00
3727;DHT22;1879;45.876;12.300;2024-03-25T07:56:01;8.80;1.00
3727;DHT22;1879;45.876;12.300;2024-03-25T07:58:27;8.80;1.00
3727;DHT22;1879;45.876;12.300;2024-03-25T08:00:53;8.90;1.00
3727;DHT22;1879;45.876;12.300;2024-03-25T08:03:19;9.00;99.90
3727;DHT22;1879;45.876;12.300;2024-03-25T08:05:45;9.00;7.90
3727;DHT22;1879;45.876;12.300;2024-03-25T08:08:12;9.10;1.00
3727;DHT22;1879;45.876;12.300;2024-03-25T08:10:38;9.20;1.00
3727;DHT22;1879;45.876;12.300;2024-03-25T08:13:04;9.20;1.00
3727;DHT22;1879;45.876;12.300;2024-03-25T08:15:30;9.20;1.00
3727;DHT22;1879;45.876;12.300;2024-03-25T08:17:56;9.30;1.00
3727;DHT22;1879;45.876;12.300;2024-03-25T08:20:22;9.40;1.00
3727;DHT22;1879;45.876;12.300;2024-03-25T08:22:49;9.50;99.90
3727;DHT22;1879;45.876;12.300;2024-03-25T08:25:16;9.60;99.90
3727;DHT22;1879;45.876;12.300;2024-03-25T08:27:42;9.60;99.90
3727;DHT22;1879;45.876;12.300;2024-03-25T08:30:09;9.70;99.90
3727;DHT22;1879;45.876;12.300;2024-03-25T08:32:35;9.80;1.00
3727;DHT22;1879;45.876;12.300;2024-03-25T08:35:01;9.80;99.90
3727;DHT22;1879;45.876;12.300;2024-03-25T08:37:27;9.90;19.70
3727;DHT22;1879;45.876;12.300;2024-03-25T08:39:53;10.00;1.00
3727;DHT22;1879;45.876;12.300;2024-03-25T08:42:21;10.00;1.00
3727;DHT22;1879;45.876;12.300;2024-03-25T08:44:47;10.10;99.90
3727;DHT22;1879;45.876;12.300;2024-03-25T08:47:13;10.20;99.90
3727;DHT22;1879;45.876;12.300;2024-03-25T08:49:39;10.30;99.90
3727;DHT22;1879;45.876;12.300;2024-03-25T08:52:05;10.40;99.90
3727;DHT22;1879;45.876;12.300;2024-03-25T08:54:31;10.50;99.90
3727;DHT22;1879;45.876;12.300;2024-03-25T08:56:57;10.60;99.90
3727;DHT22;1879;45.876;12.300;2024-03-25T08:59:40;10.70;99.90
3727;DHT22;1879;45.876;12.300;2024-03-25T09:02:22;10.70;99.90
3727;DHT22;1879;45.876;12.300;2024-03-25T09:05:03;10.80;99.90
3727;DHT22;1879;45.876;12.300;2024-03-25T09:07:30;10.90;99.90
3727;DHT22;1879;45.876;12.300;2024-03-25T09:09:56;11.00;99.90
3727;DHT22;1879;45.876;12.300;2024-03-25T09:12:41;11.10;99.90
3727;DHT22;1879;45.876;12.300;2024-03-25T09:15:17;11.20;97.80
3727;DHT22;1879;45.876;12.300;2024-03-25T09:17:43;11.20;99.90
3727;DHT22;1879;45.876;12.300;2024-03-25T09:20:18;11.30;99.90
3727;DHT22;1879;45.876;12.300;2024-03-25T09:22:44;11.30;95.40
3727;DHT22;1879;45.876;12.300;2024-03-25T09:25:11;11.40;72.60
3727;DHT22;1879;45.876;12.300;2024-03-25T09:27:37;11.50;30.20
3727;DHT22;1879;45.876;12.300;2024-03-25T09:30:03;11.60;1.00
3727;DHT22;1879;45.876;12.300;2024-03-25T09:32:35;11.60;1.00
3727;DHT22;1879;45.876;12.300;2024-03-25T09:35:01;11.60;1.00
3727;DHT22;1879;45.876;12.300;2024-03-25T09:37:27;11.70;1.00
3727;DHT22;1879;45.876;12.300;2024-03-25T09:39:53;11.80;1.00
3727;DHT22;1879;45.876;12.300;2024-03-25T09:42:25;11.90;1.00
3727;DHT22;1879;45.876;12.300;2024-03-25T09:44:52;12.00;1.00
3727;DHT22;1879;45.876;12.300;2024-03-25T09:47:19;12.00;1.00
3727;DHT22;1879;45.876;12.300;2024-03-25T09:49:46;12.00;1.00
3727;DHT22;1879;45.876;12.300;2024-03-25T09:52:14;12.10;1.00
3727;DHT22;1879;45.876;12.300;2024-03-25T09:54:40;12.20;1.00
3727;DHT22;1879;45.876;12.300;2024-03-25T09:57:06;12.30;1.00
3727;DHT22;1879;45.876;12.300;2024-03-25T09:59:32;12.40;99.90
3727;DHT22;1879;45.876;12.300;2024-03-25T10:01:59;12.50;99.90
3727;DHT22;1879;45.876;12.300;2024-03-25T10:04:26;12.60;99.90
3727;DHT22;1879;45.876;12.300;2024-03-25T10:06:53;12.80;99.90
3727;DHT22;1879;45.876;12.300;2024-03-25T10:09:20;12.80;99.90
3727;DHT22;1879;45.876;12.300;2024-03-25T10:11:47;12.80;1.00
3727;DHT22;1879;45.876;12.300;2024-03-25T10:14:15;13.00;1.00
3727;DHT22;1879;45.876;12.300;2024-03-25T10:16:41;13.30;1.00
3727;DHT22;1879;45.876;12.300;2024-03-25T10:19:07;13.40;1.00
3727;DHT22;1879;45.876;12.300;2024-03-25T10:21:33;13.60;1.00
3727;DHT22;1879;45.876;12.300;2024-03-25T10:24:00;13.60;1.00
3727;DHT22;1879;45.876;12.300;2024-03-25T10:26:27;13.60;1.00
3727;DHT22;1879;45.876;12.300;2024-03-25T10:29:04;13.70;1.00
3727;DHT22;1879;45.876;12.300;2024-03-25T10:31:30;13.80;99.90
3727;DHT22;1879;45.876;12.300;2024-03-25T10:33:56;13.80;1.00
3727;DHT22;1879;45.876;12.300;2024-03-25T10:36:22;13.90;99.90
3727;DHT22;1879;45.876;12.300;2024-03-25T10:38:52;14.00;1.00
3727;DHT22;1879;45.876;12.300;2024-03-25T10:41:21;14.10;1.00
3727;DHT22;1879;45.876;12.300;2024-03-25T10:43:47;14.40;1.00
3727;DHT22;1879;45.876;12.300;2024-03-25T10:46:19;14.60;1.00
3727;DHT22;1879;45.876;12.300;2024-03-25T10:48:52;14.70;1.00
3727;DHT22;1879;45.876;12.300;2024-03-25T10:51:21;14.80;1.00
3727;DHT22;1879;45.876;12.300;2024-03-25T10:53:49;14.80;12.70
3727;DHT22;1879;45.876;12.300;2024-03-25T10:56:21;14.80;71.10
3727;DHT22;1879;45.876;12.300;2024-03-25T10:58:48;14.70;70.70
3727;DHT22;1879;45.876;12.300;2024-03-25T11:01:16;14.80;71.80
3727;DHT22;1879;45.876;12.300;2024-03-25T11:03:43;15.00;72.40
3727;DHT22;1879;45.876;12.300;2024-03-25T11:06:09;15.00;70.90
3727;DHT22;1879;45.876;12.300;2024-03-25T11:08:36;15.10;70.80
3727;DHT22;1879;45.876;12.300;2024-03-25T11:11:02;15.20;69.80
3727;DHT22;1879;45.876;12.300;2024-03-25T11:13:31;15.20;66.40
3727;DHT22;1879;45.876;12.300;2024-03-25T11:15:58;15.20;66.20
3727;DHT22;1879;45.876;12.300;2024-03-25T11:18:25;15.40;66.60
3727;DHT22;1879;45.876;12.300;2024-03-25T11:21:01;15.60;67.40
3727;DHT22;1879;45.876;12.300;2024-03-25T11:23:34;15.90;65.80
3727;DHT22;1879;45.876;12.300;2024-03-25T11:26:00;16.40;64.90
3727;DHT22;1879;45.876;12.300;2024-03-25T11:28:27;16.70;62.90
3727;DHT22;1879;45.876;12.300;2024-03-25T11:30:55;16.90;62.60
3727;DHT22;1879;45.876;12.300;2024-03-25T11:33:21;17.20;62.10
3727;DHT22;1879;45.876;12.300;2024-03-25T11:35:48;17.80;62.40
3727;DHT22;1879;45.876;12.300;2024-03-25T11:38:14;18.40;60.50
3727;DHT22;1879;45.876;12.300;2024-03-25T11:40:43;18.90;58.80
3727;DHT22;1879;45.876;12.300;2024-03-25T11:43:09;19.30;55.70
3727;DHT22;1879;45.876;12.300;2024-03-25T11:45:36;20.00;56.30
3727;DHT22;1879;45.876;12.300;2024-03-25T11:48:04;21.20;54.60
3727;DHT22;1879;45.876;12.300;2024-03-25T11:50:31;22.00;51.00
3727;DHT22;1879;45.876;12.300;2024-03-25T11:53:03;23.00;47.90
3727;DHT22;1879;45.876;12.300;2024-03-25T11:55:29;23.90;45.80
3727;DHT22;1879;45.876;12.300;2024-03-25T11:57:55;24.90;41.90
3727;DHT22;1879;45.876;12.300;2024-03-25T12:00:21;26.00;40.00
3727;DHT22;1879;45.876;12.300;2024-03-25T12:02:47;26.90;34.40
3727;DHT22;1879;45.876;12.300;2024-03-25T12:05:15;27.50;36.30
3727;DHT22;1879;45.876;12.300;2024-03-25T12:07:41;28.10;34.30
3727;DHT22;1879;45.876;12.300;2024-03-25T12:10:07;28.90;33.60
3727;DHT22;1879;45.876;12.300;2024-03-25T12:27:33;29.00;23.90
3727;DHT22;1879;45.876;12.300;2024-03-25T12:29:59;29.20;25.90
3727;DHT22;1879;45.876;12.300;2024-03-25T12:32:36;29.70;25.90
3727;DHT22;1879;45.876;12.300;2024-03-25T12:35:03;30.80;26.20
3727;DHT22;1879;45.876;12.300;2024-03-25T12:37:31;31.60;26.10
3727;DHT22;1879;45.876;12.300;2024-03-25T12:39:58;31.40;25.00
3727;DHT22;1879;45.876;12.300;2024-03-25T12:42:24;31.40;23.80
3727;DHT22;1879;45.876;12.300;2024-03-25T12:44:50;31.40;24.30
3727;DHT22;1879;45.876;12.300;2024-03-25T12:47:16;30.60;22.50
3727;DHT22;1879;45.876;12.300;2024-03-25T12:49:42;28.50;21.70
3727;DHT22;1879;45.876;12.300;2024-03-25T12:52:08;28.80;22.80
3727;DHT22;1879;45.876;12.300;2024-03-25T12:54:34;29.20;23.00
3727;DHT22;1879;45.876;12.300;2024-03-25T12:57:02;29.40;22.30
3727;DHT22;1879;45.876;12.300;2024-03-25T12:59:28;28.90;21.00
3727;DHT22;1879;45.876;12.300;2024-03-25T13:01:54;28.90;21.10
3727;DHT22;1879;45.876;12.300;2024-03-25T13:04:20;28.70;21.00
3727;DHT22;1879;45.876;12.300;2024-03-25T13:06:46;29.00;21.30
3727;DHT22;1879;45.876;12.300;2024-03-25T13:09:12;29.40;21.40
3727;DHT22;1879;45.876;12.300;2024-03-25T13:11:38;30.00;21.80
3727;DHT22;1879;45.876;12.300;2024-03-25T13:14:05;30.80;22.30
3727;DHT22;1879;45.876;12.300;2024-03-25T13:16:32;32.20;22.60
3727;DHT22;1879;45.876;12.300;2024-03-25T13:18:58;33.30;21.70
3727;DHT22;1879;45.876;12.300;2024-03-25T13:21:24;32.50;20.50
3727;DHT22;1879;45.876;12.300;2024-03-25T13:23:50;30.80;20.30
3727;DHT22;1879;45.876;12.300;2024-03-25T13:26:16;30.10;20.70
3727;DHT22;1879;45.876;12.300;2024-03-25T13:28:42;29.40;20.90
3727;DHT22;1879;45.876;12.300;2024-03-25T13:31:10;30.10;22.30
3727;DHT22;1879;45.876;12.300;2024-03-25T13:33:36;31.00;22.00
3727;DHT22;1879;45.876;12.300;2024-03-25T13:36:02;30.40;20.30
3727;DHT22;1879;45.876;12.300;2024-03-25T13:38:28;30.10;21.20
3727;DHT22;1879;45.876;12.300;2024-03-25T13:40:54;29.70;21.90
3727;DHT22;1879;45.876;12.300;2024-03-25T13:43:20;30.00;22.70
3727;DHT22;1879;45.876;12.300;2024-03-25T13:45:47;29.90;22.70
3727;DHT22;1879;45.876;12.300;2024-03-25T13:48:15;28.70;21.40
3727;DHT22;1879;45.876;12.300;2024-03-25T13:50:41;28.60;22.20
3727;DHT22;1879;45.876;12.300;2024-03-25T13:53:07;29.50;23.60
3727;DHT22;1879;45.876;12.300;2024-03-25T13:55:33;30.60;23.60
3727;DHT22;1879;45.876;12.300;2024-03-25T13:57:59;30.60;22.60
3727;DHT22;1879;45.876;12.300;2024-03-25T14:00:25;30.00;23.30
3727;DHT22;1879;45.876;12.300;2024-03-25T14:02:51;29.90;23.30
3727;DHT22;1879;45.876;12.300;2024-03-25T14:05:19;28.80;23.40
3727;DHT22;1879;45.876;12.300;2024-03-25T14:07:45;28.00;24.50
3727;DHT22;1879;45.876;12.300;2024-03-25T14:10:11;27.70;25.30
3727;DHT22;1879;45.876;12.300;2024-03-25T14:12:37;27.80;25.10
3727;DHT22;1879;45.876;12.300;2024-03-25T14:15:03;28.30;25.10
3727;DHT22;1879;45.876;12.300;2024-03-25T14:17:30;28.90;24.80
3727;DHT22;1879;45.876;12.300;2024-03-25T14:19:56;29.70;24.50
3727;DHT22;1879;45.876;12.300;2024-03-25T14:22:24;29.90;24.30
3727;DHT22;1879;45.876;12.300;2024-03-25T14:24:50;28.40;23.90
3727;DHT22;1879;45.876;12.300;2024-03-25T14:27:16;28.80;25.10
3727;DHT22;1879;45.876;12.300;2024-03-25T14:29:42;27.90;24.60
3727;DHT22;1879;45.876;12.300;2024-03-25T14:32:08;27.90;24.70
3727;DHT22;1879;45.876;12.300;2024-03-25T14:34:34;27.30;25.10
3727;DHT22;1879;45.876;12.300;2024-03-25T14:37:00;25.10;25.30
3727;DHT22;1879;45.876;12.300;2024-03-25T14:39:28;23.70;27.00
3727;DHT22;1879;45.876;12.300;2024-03-25T14:41:54;22.60;28.20
3727;DHT22;1879;45.876;12.300;2024-03-25T14:44:20;21.80;29.40
3727;DHT22;1879;45.876;12.300;2024-03-25T14:46:46;21.30;29.90
3727;DHT22;1879;45.876;12.300;2024-03-25T14:49:12;21.00;30.10
3727;DHT22;1879;45.876;12.300;2024-03-25T14:51:38;20.90;30.40
3727;DHT22;1879;45.876;12.300;2024-03-25T14:54:04;20.60;31.00
3727;DHT22;1879;45.876;12.300;2024-03-25T14:56:31;20.70;32.00
3727;DHT22;1879;45.876;12.300;2024-03-25T14:58:57;20.60;32.10
3727;DHT22;1879;45.876;12.300;2024-03-25T15:01:23;20.40;33.10
3727;DHT22;1879;45.876;12.300;2024-03-25T15:03:49;21.20;33.60
3727;DHT22;1879;45.876;12.300;2024-03-25T15:06:15;22.40;33.20
3727;DHT22;1879;45.876;12.300;2024-03-25T15:08:41;23.30;32.00
3727;DHT22;1879;45.876;12.300;2024-03-25T15:11:09;22.90;31.20
3727;DHT22;1879;45.876;12.300;2024-03-25T15:13:36;21.80;32.10
3727;DHT22;1879;45.876;12.300;2024-03-25T15:16:04;20.70;32.70
3727;DHT22;1879;45.876;12.300;2024-03-25T15:18:30;20.00;34.10
3727;DHT22;1879;45.876;12.300;2024-03-25T15:21:00;19.70;35.40
3727;DHT22;1879;45.876;12.300;2024-03-25T15:23:26;19.40;35.70
3727;DHT22;1879;45.876;12.300;2024-03-25T15:25:52;19.20;36.20
3727;DHT22;1879;45.876;12.300;2024-03-25T15:28:19;20.50;36.90
3727;DHT22;1879;45.876;12.300;2024-03-25T15:30:47;21.40;35.80
3727;DHT22;1879;45.876;12.300;2024-03-25T15:33:13;21.40;34.20
3727;DHT22;1879;45.876;12.300;2024-03-25T15:35:39;21.50;34.50
3727;DHT22;1879;45.876;12.300;2024-03-25T15:38:06;21.10;34.80
3727;DHT22;1879;45.876;12.300;2024-03-25T15:40:32;20.70;34.70
3727;DHT22;1879;45.876;12.300;2024-03-25T15:42:58;20.20;35.00
3727;DHT22;1879;45.876;12.300;2024-03-25T15:45:25;19.50;35.20
3727;DHT22;1879;45.876;12.300;2024-03-25T15:47:52;19.20;36.30
3727;DHT22;1879;45.876;12.300;2024-03-25T15:50:18;19.90;36.20
3727;DHT22;1879;45.876;12.300;2024-03-25T15:52:44;20.70;35.40
3727;DHT22;1879;45.876;12.300;2024-03-25T15:55:10;20.40;34.80
3727;DHT22;1879;45.876;12.300;2024-03-25T15:57:36;20.30;34.40
3727;DHT22;1879;45.876;12.300;2024-03-25T16:00:03;20.10;34.90
3727;DHT22;1879;45.876;12.300;2024-03-25T16:02:30;19.90;35.40
3727;DHT22;1879;45.876;12.300;2024-03-25T16:04:58;19.30;35.40
3727;DHT22;1879;45.876;12.300;2024-03-25T16:07:24;18.70;35.10
3727;DHT22;1879;45.876;12.300;2024-03-25T16:09:50;18.30;35.30
3727;DHT22;1879;45.876;12.300;2024-03-25T16:12:16;18.00;35.90
3727;DHT22;1879;45.876;12.300;2024-03-25T16:14:42;17.70;35.40
3727;DHT22;1879;45.876;12.300;2024-03-25T16:17:08;17.70;36.70
3727;DHT22;1879;45.876;12.300;2024-03-25T16:19:34;17.60;35.60
3727;DHT22;1879;45.876;12.300;2024-03-25T16:22:01;17.40;35.60
3727;DHT22;1879;45.876;12.300;2024-03-25T16:24:27;17.20;36.60
3727;DHT22;1879;45.876;12.300;2024-03-25T16:26:53;17.00;37.60
3727;DHT22;1879;45.876;12.300;2024-03-25T16:29:19;16.90;38.50
3727;DHT22;1879;45.876;12.300;2024-03-25T16:31:45;16.70;39.00
3727;DHT22;1879;45.876;12.300;2024-03-25T16:34:11;16.60;39.60
3727;DHT22;1879;45.876;12.300;2024-03-25T16:36:38;16.50;40.30
3727;DHT22;1879;45.876;12.300;2024-03-25T16:39:05;16.40;40.90
3727;DHT22;1879;45.876;12.300;2024-03-25T16:41:31;16.30;41.40
3727;DHT22;1879;45.876;12.300;2024-03-25T16:43:57;16.20;42.10
3727;DHT22;1879;45.876;12.300;2024-03-25T16:46:23;16.20;43.00
3727;DHT22;1879;45.876;12.300;2024-03-25T16:48:49;16.00;43.40
3727;DHT22;1879;45.876;12.300;2024-03-25T16:51:15;15.90;44.20
3727;DHT22;1879;45.876;12.300;2024-03-25T16:53:41;15.80;45.10
3727;DHT22;1879;45.876;12.300;2024-03-25T16:56:09;15.80;45.70
3727;DHT22;1879;45.876;12.300;2024-03-25T16:58:35;15.80;46.80
3727;DHT22;1879;45.876;12.300;2024-03-25T17:01:01;15.70;47.20
3727;DHT22;1879;45.876;12.300;2024-03-25T17:03:27;15.60;48.30
3727;DHT22;1879;45.876;12.300;2024-03-25T17:05:53;15.50;49.00
3727;DHT22;1879;45.876;12.300;2024-03-25T17:08:19;15.50;49.70
3727;DHT22;1879;45.876;12.300;2024-03-25T17:10:45;15.40;50.00
3727;DHT22;1879;45.876;12.300;2024-03-25T17:13:13;15.30;50.50
3727;DHT22;1879;45.876;12.300;2024-03-25T17:15:39;15.20;51.10
3727;DHT22;1879;45.876;12.300;2024-03-25T17:18:08;15.10;52.00
3727;DHT22;1879;45.876;12.300;2024-03-25T17:20:34;15.10;53.00
3727;DHT22;1879;45.876;12.300;2024-03-25T17:23:00;15.00;53.60
3727;DHT22;1879;45.876;12.300;2024-03-25T17:25:27;15.00;54.10
3727;DHT22;1879;45.876;12.300;2024-03-25T17:27:53;15.00;55.60
3727;DHT22;1879;45.876;12.300;2024-03-25T17:30:20;15.00;56.20
3727;DHT22;1879;45.876;12.300;2024-03-25T17:32:47;15.00;57.20
3727;DHT22;1879;45.876;12.300;2024-03-25T17:35:13;15.00;58.10
3727;DHT22;1879;45.876;12.300;2024-03-25T17:37:39;14.80;59.10
3727;DHT22;1879;45.876;12.300;2024-03-25T17:40:06;14.80;60.50
3727;DHT22;1879;45.876;12.300;2024-03-25T17:42:33;14.80;62.20
3727;DHT22;1879;45.876;12.300;2024-03-25T17:44:59;14.70;64.20
3727;DHT22;1879;45.876;12.300;2024-03-25T17:47:27;14.60;66.70
3727;DHT22;1879;45.876;12.300;2024-03-25T17:49:53;14.50;68.80
3727;DHT22;1879;45.876;12.300;2024-03-25T17:52:19;14.50;70.80
3727;DHT22;1879;45.876;12.300;2024-03-25T17:54:45;14.50;72.00
3727;DHT22;1879;45.876;12.300;2024-03-25T17:57:11;14.50;73.40
3727;DHT22;1879;45.876;12.300;2024-03-25T17:59:37;14.40;74.60
3727;DHT22;1879;45.876;12.300;2024-03-25T18:02:03;14.40;75.70
3727;DHT22;1879;45.876;12.300;2024-03-25T18:04:30;14.40;76.80
3727;DHT22;1879;45.876;12.300;2024-03-25T18:06:56;14.40;78.60
3727;DHT22;1879;45.876;12.300;2024-03-25T18:09:22;14.30;79.20
3727;DHT22;1879;45.876;12.300;2024-03-25T18:11:48;14.30;80.40
3727;DHT22;1879;45.876;12.300;2024-03-25T18:14:14;14.30;81.50
3727;DHT22;1879;45.876;12.300;2024-03-25T18:16:40;14.30;81.70
3727;DHT22;1879;45.876;12.300;2024-03-25T18:19:06;14.30;82.00
3727;DHT22;1879;45.876;12.300;2024-03-25T18:21:34;14.20;82.80
3727;DHT22;1879;45.876;12.300;2024-03-25T18:24:00;14.20;83.20
3727;DHT22;1879;45.876;12.300;2024-03-25T18:26:26;14.10;84.30
3727;DHT22;1879;45.876;12.300;2024-03-25T18:28:52;14.10;84.70
3727;DHT22;1879;45.876;12.300;2024-03-25T18:31:18;14.00;84.80
3727;DHT22;1879;45.876;12.300;2024-03-25T18:33:44;14.00;86.70
3727;DHT22;1879;45.876;12.300;2024-03-25T18:36:10;13.90;86.70
3727;DHT22;1879;45.876;12.300;2024-03-25T18:38:37;13.80;87.50
3727;DHT22;1879;45.876;12.300;2024-03-25T18:41:03;13.80;88.30
3727;DHT22;1879;45.876;12.300;2024-03-25T18:43:29;13.90;87.70
3727;DHT22;1879;45.876;12.300;2024-03-25T18:45:55;13.90;88.60
3727;DHT22;1879;45.876;12.300;2024-03-25T18:48:22;13.80;89.00
3727;DHT22;1879;45.876;12.300;2024-03-25T18:50:48;13.80;88.80
3727;DHT22;1879;45.876;12.300;2024-03-25T18:53:14;13.80;89.00
3727;DHT22;1879;45.876;12.300;2024-03-25T18:55:42;13.80;88.90
3727;DHT22;1879;45.876;12.300;2024-03-25T18:58:08;13.80;90.20
3727;DHT22;1879;45.876;12.300;2024-03-25T19:00:34;13.70;90.30
3727;DHT22;1879;45.876;12.300;2024-03-25T19:03:00;13.70;90.30
3727;DHT22;1879;45.876;12.300;2024-03-25T19:05:26;13.70;90.30
3727;DHT22;1879;45.876;12.300;2024-03-25T19:07:52;13.70;90.40
3727;DHT22;1879;45.876;12.300;2024-03-25T19:10:18;13.80;90.50
3727;DHT22;1879;45.876;12.300;2024-03-25T19:12:45;13.70;90.50
3727;DHT22;1879;45.876;12.300;2024-03-25T19:15:11;13.70;90.60
3727;DHT22;1879;45.876;12.300;2024-03-25T19:17:38;13.70;90.70
3727;DHT22;1879;45.876;12.300;2024-03-25T19:20:05;13.80;90.60
3727;DHT22;1879;45.876;12.300;2024-03-25T19:22:31;13.80;90.80